UUDD/DME METAR and TAF weather

Enter ICAO airport designator
Station Type Date Time Source
UUDD METAR 2021/05/11 16:00 UTC NOAA

UUDD 111600Z 07004MPS CAVOK 21/04 Q1024 R88/CLRD60 NOSIG


Station Type Date Time Source
UUDD Decoded METAR 2021/05/11 16:00 UTC NOAA

Moscow / Domodedovo, Russia (UUDD) 55-24N 037-54E
May 11, 2021 - 12:00 PM EDT / 2021.05.11 1600 UTC
Wind: from the ENE (070 degrees) at 9 MPH (8 KT):0
Visibility: greater than 7 mile(s):0
Temperature: 69 F (21 C)
Dew Point: 39 F (4 C)
Relative Humidity: 32%
Pressure (altimeter): 30.24 in. Hg (1024 hPa)
ob: UUDD 111600Z 07004MPS CAVOK 21/04 Q1024 R88/CLRD60 NOSIG
cycle: 16

Station Type Date Time Source
UUDD TAF 2021/05/11 15:22 UTC NOAA

TAF UUDD 111351Z 1115/1221 05003G08MPS 9999 SCT030 TX20/1115Z TN10/1200Z
BECMG 1200/1202 FEW006 BKN020 PROB40
TEMPO 1210/1218 -TSRA BKN016CB

Example: see airport list